Terminal Aerodrome Forecast
Issued by NWS

Home | Current Version | Previous Version | Text Only | Print | Product List | Glossary On
Versions: 1 2 3 4 5 6 7 8 9 10 11 12 13 14 15 16 17 18 19 20 21 22 23 24 25 26 27 28 29 30 31 32 33 34 35 36
351
FTUS41 KBUF 142340
TAFIAG
TAF
KIAG 142340Z 1500/1524 08004KT P6SM SCT200
     FM150200 11004KT P6SM BKN200
     FM150900 14005KT P6SM BKN070 OVC100
     FM151500 16010KT P6SM VCSH OVC045=

USA.gov is the U.S. government's official web portal to all federal, state and local government web resources and services.